Time;durP1;ratioP1;P1;durP2;ratioP2;P2;SDS_P1;SDS_P2;PMS_P1;PMS_P2;Temp;Humidity;BMP_temperature;BMP_pressure;BME280_temperature;BME280_humidity;BME280_pressure;Samples;Min_cycle;Max_cycle;Signal;HPM_P1;HPM_P2
2022/11/12 00:02:14;;;;;;;10.23;7.23;;;-10.50;99.90;;;;;;5090299;28;20197;-72
2022/11/12 00:04:40;;;;;;;8.33;7.37;;;-10.50;99.90;;;;;;5090499;28;20206;-71
2022/11/12 00:07:05;;;;;;;8.37;7.43;;;-10.50;99.90;;;;;;5092817;28;20178;-72
2022/11/12 00:09:31;;;;;;;8.37;7.47;;;-10.40;99.90;;;;;;5096714;28;20585;-73
2022/11/12 00:11:57;;;;;;;9.50;7.60;;;-10.80;99.90;;;;;;5088764;28;20206;-71
2022/11/12 00:14:22;;;;;;;9.43;5.97;;;-10.70;99.90;;;;;;5089759;28;20241;-74
2022/11/12 00:16:48;;;;;;;6.83;6.17;;;-11.00;99.90;;;;;;5086271;28;20236;-73
2022/11/12 00:19:14;;;;;;;7.33;6.73;;;-11.00;99.90;;;;;;5092396;28;20251;-72
2022/11/12 00:21:40;;;;;;;7.67;6.00;;;-10.80;99.90;;;;;;5085176;28;20181;-72
2022/11/12 00:24:05;;;;;;;7.83;5.80;;;-11.20;99.90;;;;;;5097673;28;20183;-75
2022/11/12 00:26:31;;;;;;;7.87;6.87;;;-11.00;99.90;;;;;;5090892;28;20598;-74
2022/11/12 00:28:57;;;;;;;9.63;5.83;;;-10.60;99.90;;;;;;5097539;28;20190;-75
2022/11/12 00:31:23;;;;;;;6.70;6.10;;;-11.00;99.90;;;;;;5081258;28;20184;-75
2022/11/12 00:33:48;;;;;;;9.63;7.17;;;-11.90;99.90;;;;;;5090081;28;20222;-73
2022/11/12 00:36:14;;;;;;;9.07;6.50;;;-11.60;99.90;;;;;;5090720;28;20184;-72
2022/11/12 00:38:40;;;;;;;6.77;5.93;;;-11.40;99.90;;;;;;5097386;28;20185;-71
2022/11/12 00:41:06;;;;;;;7.17;6.53;;;-10.90;99.90;;;;;;5096974;28;20194;-72
2022/11/12 00:43:31;;;;;;;9.73;6.77;;;-12.00;99.90;;;;;;5091070;28;20287;-73
2022/11/12 00:45:57;;;;;;;7.17;6.47;;;-10.70;99.90;;;;;;5093519;28;20178;-76
2022/11/12 00:48:23;;;;;;;7.03;5.53;;;-10.70;99.90;;;;;;5083996;28;20189;-73
2022/11/12 00:50:48;;;;;;;14.87;7.00;;;-11.10;99.90;;;;;;5094244;28;20189;-73
2022/11/12 00:53:14;;;;;;;13.37;5.37;;;-10.20;99.90;;;;;;5096888;28;20198;-72
2022/11/12 00:55:40;;;;;;;6.70;5.70;;;-10.90;99.90;;;;;;5092825;28;20171;-75
2022/11/12 00:58:05;;;;;;;10.43;5.67;;;-11.30;99.90;;;;;;5092300;28;20183;-75
2022/11/12 01:00:31;;;;;;;8.67;5.97;;;-10.30;99.90;;;;;;5089178;28;20578;-75
2022/11/12 01:02:57;;;;;;;5.80;5.23;;;-10.30;99.90;;;;;;5088957;28;20198;-72
2022/11/12 01:05:22;;;;;;;8.47;6.73;;;-10.50;99.90;;;;;;5088330;28;20217;-75
2022/11/12 01:07:48;;;;;;;8.23;7.43;;;-10.30;99.90;;;;;;5079300;28;20183;-73
2022/11/12 01:10:14;;;;;;;7.90;5.40;;;-11.10;99.90;;;;;;5095913;28;20272;-72
2022/11/12 01:12:40;;;;;;;5.83;5.17;;;-9.80;99.90;;;;;;5089402;28;20493;-73
2022/11/12 01:15:06;;;;;;;6.80;6.10;;;-11.00;99.90;;;;;;5096174;28;20186;-71
2022/11/12 01:17:32;;;;;;;7.50;6.73;;;-10.50;99.90;;;;;;5095058;28;20463;-72
2022/11/12 01:19:58;;;;;;;10.70;6.03;;;-10.40;99.90;;;;;;5091766;28;20179;-72
2022/11/12 01:22:24;;;;;;;9.73;6.03;;;-10.40;99.90;;;;;;5094895;28;20419;-70
2022/11/12 01:24:50;;;;;;;6.03;5.37;;;-10.50;99.90;;;;;;5092946;28;20206;-73
2022/11/12 01:27:15;;;;;;;6.73;6.00;;;-10.60;99.90;;;;;;5092539;28;20531;-72
2022/11/12 01:29:41;;;;;;;7.43;5.97;;;-10.10;99.90;;;;;;5090815;28;20267;-72
2022/11/12 01:32:07;;;;;;;7.10;6.40;;;-10.40;99.90;;;;;;5095646;28;20185;-73
2022/11/12 01:34:33;;;;;;;6.93;5.63;;;-10.60;99.90;;;;;;5096018;28;20214;-72
2022/11/12 01:36:59;;;;;;;8.47;6.43;;;-10.30;99.90;;;;;;5096174;28;20212;-72
2022/11/12 01:39:24;;;;;;;6.13;5.50;;;-11.00;99.90;;;;;;5096353;28;20189;-72
2022/11/12 01:41:50;;;;;;;7.00;5.33;;;-11.10;99.90;;;;;;5096045;28;20235;-73
2022/11/12 01:44:20;;;;;;;7.07;6.37;;;-11.90;99.90;;;;;;5092179;28;20194;-71
2022/11/12 01:47:00;;;;;;;6.53;5.93;;;-12.20;99.90;;;;;;5085789;28;20220;-72
2022/11/12 01:49:43;;;;;;;7.23;6.07;;;-11.50;99.90;;;;;;5086050;28;20614;-73
2022/11/12 01:52:37;;;;;;;12.90;6.53;;;-11.40;99.90;;;;;;5088530;28;20700;-73
2022/11/12 01:55:14;;;;;;;11.00;7.03;;;-11.00;99.90;;;;;;5088457;28;20442;-76
2022/11/12 01:57:46;;;;;;;6.43;5.83;;;-11.50;99.90;;;;;;5088494;28;20472;-73
2022/11/12 02:00:13;;;;;;;6.97;6.27;;;-11.00;99.90;;;;;;5086213;28;20493;-72
2022/11/12 02:02:42;;;;;;;6.40;5.87;;;-11.40;99.90;;;;;;5090232;28;20667;-72
2022/11/12 02:05:10;;;;;;;6.57;5.90;;;-11.10;99.90;;;;;;5085871;28;20454;-74
2022/11/12 02:07:38;;;;;;;6.53;5.10;;;-11.40;99.90;;;;;;5087168;28;21058;-73
2022/11/12 02:10:05;;;;;;;6.53;5.83;;;-12.30;99.90;;;;;;5084708;28;20431;-74
2022/11/12 02:15:16;;;;;;;6.33;4.93;;;-11.50;99.90;;;;;;5095433;28;20287;-74
2022/11/12 02:17:42;;;;;;;7.33;5.87;;;-12.40;99.90;;;;;;5089573;28;20502;-75
2022/11/12 02:20:13;;;;;;;7.10;6.03;;;-12.60;99.90;;;;;;5090306;28;20183;-73
2022/11/12 02:22:39;;;;;;;7.20;6.00;;;-13.20;99.90;;;;;;5078387;28;20183;-75
2022/11/12 02:25:05;;;;;;;6.53;5.93;;;-12.50;99.90;;;;;;5090519;28;20882;-76
2022/11/12 02:27:31;;;;;;;8.87;5.60;;;-12.50;99.90;;;;;;5095334;28;20177;-76
2022/11/12 02:29:57;;;;;;;8.23;6.13;;;-12.90;99.90;;;;;;5095448;28;20463;-75
2022/11/12 02:32:23;;;;;;;7.70;6.00;;;-14.10;99.90;;;;;;5091558;28;20523;-73
2022/11/12 02:34:48;;;;;;;6.70;6.07;;;-13.90;99.90;;;;;;5095543;28;20210;-74
2022/11/12 02:37:14;;;;;;;6.83;6.13;;;-13.00;99.90;;;;;;5093481;28;20170;-71
2022/11/12 02:39:40;;;;;;;7.50;5.97;;;-13.50;99.90;;;;;;5091140;28;20175;-75
2022/11/12 02:42:05;;;;;;;6.87;6.27;;;-13.20;99.90;;;;;;5096079;28;20213;-73
2022/11/12 02:44:31;;;;;;;7.67;6.37;;;-12.50;99.90;;;;;;5095339;28;20220;-72
2022/11/12 02:46:57;;;;;;;7.50;6.00;;;-13.70;99.90;;;;;;5092846;28;20228;-72
2022/11/12 02:49:23;;;;;;;9.40;5.80;;;-13.60;99.90;;;;;;5099060;28;20271;-72
2022/11/12 02:51:48;;;;;;;8.30;7.50;;;-13.40;99.90;;;;;;5088879;28;20249;-71
2022/11/12 02:54:14;;;;;;;8.20;6.30;;;-12.40;99.90;;;;;;5094373;28;20211;-72
2022/11/12 02:56:40;;;;;;;7.03;6.33;;;-12.50;99.90;;;;;;5084874;28;20185;-73
2022/11/12 02:59:06;;;;;;;8.33;7.53;;;-11.50;99.90;;;;;;5094456;28;20181;-72
2022/11/12 03:01:31;;;;;;;10.17;6.33;;;-11.80;99.90;;;;;;5098449;28;20240;-71
2022/11/12 03:03:58;;;;;;;8.83;5.97;;;-11.90;99.90;;;;;;5092330;28;20207;-72
2022/11/12 03:06:24;;;;;;;7.63;6.03;;;-11.70;99.90;;;;;;5098669;28;20667;-72
2022/11/12 03:08:49;;;;;;;9.87;6.63;;;-11.30;99.90;;;;;;5090785;28;20430;-73
2022/11/12 03:11:16;;;;;;;7.77;5.83;;;-11.50;99.90;;;;;;5094576;28;20183;-73
2022/11/12 03:13:42;;;;;;;5.97;5.37;;;-11.40;99.90;;;;;;5091746;28;20248;-71
2022/11/12 03:16:08;;;;;;;8.10;6.17;;;-11.80;99.90;;;;;;5092014;28;20481;-74
2022/11/12 03:18:34;;;;;;;6.00;5.50;;;-12.00;99.90;;;;;;5098772;28;20729;-74
2022/11/12 03:21:00;;;;;;;7.67;6.83;;;-11.90;99.90;;;;;;5098808;28;20421;-72
2022/11/12 03:23:27;;;;;;;6.57;5.83;;;-12.70;99.90;;;;;;5097634;28;20190;-71
2022/11/12 03:25:53;;;;;;;8.40;7.00;;;-12.80;99.90;;;;;;5098492;28;20651;-73
2022/11/12 03:28:19;;;;;;;6.83;6.23;;;-12.20;99.90;;;;;;5098664;28;20418;-72
2022/11/12 03:30:44;;;;;;;9.90;6.80;;;-12.50;99.90;;;;;;5098474;28;20493;-73
2022/11/12 03:33:12;;;;;;;6.83;6.13;;;-11.80;99.90;;;;;;5094585;28;20223;-74
2022/11/12 03:35:38;;;;;;;9.50;7.57;;;-12.20;99.90;;;;;;5096567;28;20213;-73
2022/11/12 03:38:05;;;;;;;7.37;6.67;;;-12.10;99.90;;;;;;5086262;28;20426;-72
2022/11/12 03:40:32;;;;;;;7.57;6.87;;;-11.00;99.90;;;;;;5087745;28;20455;-73
2022/11/12 03:42:58;;;;;;;5.37;4.97;;;-11.60;99.90;;;;;;5091132;28;20505;-73
2022/11/12 03:45:25;;;;;;;7.47;5.93;;;-11.90;99.90;;;;;;5095759;28;20544;-71
2022/11/12 03:47:53;;;;;;;7.37;6.13;;;-10.80;99.90;;;;;;5098430;28;20779;-73
2022/11/12 03:50:22;;;;;;;8.73;6.30;;;-11.80;99.90;;;;;;5088649;28;20423;-70
2022/11/12 03:52:49;;;;;;;7.07;6.37;;;-11.40;99.90;;;;;;5092016;28;20456;-73
2022/11/12 03:55:18;;;;;;;7.03;6.33;;;-12.60;99.90;;;;;;5091152;28;20465;-72
2022/11/12 03:57:46;;;;;;;6.50;5.53;;;-12.10;99.90;;;;;;5093477;28;20425;-74
2022/11/12 04:00:12;;;;;;;6.47;5.60;;;-12.30;99.90;;;;;;5089176;28;20423;-73
2022/11/12 04:02:38;;;;;;;7.40;6.00;;;-12.40;99.90;;;;;;5098067;28;20453;-74
2022/11/12 04:10:59;;;;;;;5.27;4.57;;;-12.40;99.90;;;;;;5078534;28;20465;-75
2022/11/12 04:13:28;;;;;;;7.70;5.97;;;-12.90;99.90;;;;;;5087517;28;20450;-77
2022/11/12 04:21:51;;;;;;;7.17;6.47;;;-12.80;99.90;;;;;;5096912;28;20417;-72
2022/11/12 04:27:03;;;;;;;5.53;5.03;;;-11.90;99.90;;;;;;5085580;28;20414;-74
2022/11/12 04:32:13;;;;;;;16.67;6.10;;;-12.50;99.90;;;;;;5092045;28;20434;-74
2022/11/12 04:34:39;;;;;;;6.67;6.00;;;-12.20;99.90;;;;;;5097178;28;20471;-72
2022/11/12 04:37:05;;;;;;;6.90;6.30;;;-11.50;99.90;;;;;;5090793;28;20426;-75
2022/11/12 04:39:31;;;;;;;5.47;4.97;;;-11.10;99.90;;;;;;5095332;28;20174;-75
2022/11/12 04:47:28;;;;;;;6.10;5.60;;;-11.40;99.90;;;;;;5084127;28;20470;-76
2022/11/12 04:49:54;;;;;;;11.57;6.10;;;-11.90;99.90;;;;;;5091297;28;20427;-77
2022/11/12 04:52:20;;;;;;;6.17;5.27;;;-11.60;99.90;;;;;;5091725;28;20419;-74
2022/11/12 04:54:47;;;;;;;6.40;5.80;;;-12.40;99.90;;;;;;5097143;28;20206;-73
2022/11/12 04:57:12;;;;;;;7.57;6.43;;;-12.20;99.90;;;;;;5090183;28;20186;-73
2022/11/12 04:59:38;;;;;;;6.90;6.37;;;-12.40;99.90;;;;;;5092560;28;20427;-73
2022/11/12 05:02:04;;;;;;;7.67;4.77;;;-12.10;99.90;;;;;;5094475;28;20189;-76
2022/11/12 05:04:30;;;;;;;6.13;5.60;;;-12.90;99.90;;;;;;5091556;28;20224;-74
2022/11/12 05:06:56;;;;;;;6.23;5.63;;;-13.10;99.90;;;;;;5087060;28;20190;-74
2022/11/12 05:09:25;;;;;;;5.67;4.77;;;-12.60;99.90;;;;;;5090249;28;20185;-76
2022/11/12 05:11:52;;;;;;;8.13;6.50;;;-12.00;99.90;;;;;;5096673;28;20472;-77
2022/11/12 05:14:18;;;;;;;7.00;6.27;;;-12.70;99.90;;;;;;5096732;28;20457;-72
2022/11/12 05:16:44;;;;;;;7.70;5.73;;;-13.10;99.90;;;;;;5096604;28;20418;-73
2022/11/12 05:19:10;;;;;;;5.97;5.33;;;-12.70;99.90;;;;;;5096630;28;20224;-76
2022/11/12 05:24:21;;;;;;;6.63;6.13;;;-12.60;99.90;;;;;;5089139;28;20228;-75
2022/11/12 05:26:47;;;;;;;6.30;5.80;;;-12.60;99.90;;;;;;5089060;28;20423;-75
2022/11/12 05:29:13;;;;;;;8.53;6.33;;;-12.20;99.90;;;;;;5088852;28;20424;-76
2022/11/12 05:31:39;;;;;;;6.17;5.57;;;-12.00;99.90;;;;;;5090284;28;20666;-77
2022/11/12 05:34:05;;;;;;;6.57;5.90;;;-12.40;99.90;;;;;;5086422;28;20474;-73
2022/11/12 05:36:30;;;;;;;8.40;6.97;;;-13.00;99.90;;;;;;5096025;28;20264;-77
2022/11/12 05:38:56;;;;;;;7.30;6.53;;;-13.10;99.90;;;;;;5095140;28;20284;-76
2022/11/12 05:41:22;;;;;;;6.93;5.57;;;-13.40;99.90;;;;;;5094184;28;20291;-71
2022/11/12 05:43:47;;;;;;;6.67;5.50;;;-13.10;99.90;;;;;;5091664;28;20185;-74
2022/11/12 05:46:13;;;;;;;9.77;5.33;;;-13.40;99.90;;;;;;5094611;28;20200;-73
2022/11/12 05:48:39;;;;;;;5.67;5.17;;;-13.20;99.90;;;;;;5086515;28;20185;-74
2022/11/12 05:51:04;;;;;;;9.47;5.53;;;-13.80;99.90;;;;;;5089263;28;20193;-72
2022/11/12 05:53:30;;;;;;;6.00;5.40;;;-13.20;99.90;;;;;;5089589;28;20211;-70
2022/11/12 05:56:03;;;;;;;5.83;5.30;;;-12.60;99.90;;;;;;5094694;28;20192;-71
2022/11/12 05:58:30;;;;;;;6.00;5.40;;;-12.60;99.90;;;;;;5095971;28;20195;-72
2022/11/12 06:00:56;;;;;;;8.60;6.00;;;-13.10;99.90;;;;;;5078531;28;20427;-71
2022/11/12 06:03:23;;;;;;;7.57;6.77;;;-13.50;99.90;;;;;;5089152;28;20441;-73
2022/11/12 06:05:49;;;;;;;7.93;5.60;;;-12.70;99.90;;;;;;5093398;28;20625;-71
2022/11/12 06:08:14;;;;;;;9.53;6.00;;;-13.80;99.90;;;;;;5095816;28;20429;-71
2022/11/12 06:10:40;;;;;;;9.43;5.93;;;-14.00;99.90;;;;;;5095545;28;20550;-70
2022/11/12 06:13:06;;;;;;;7.73;6.97;;;-13.10;99.90;;;;;;5088481;28;20198;-71
2022/11/12 06:15:32;;;;;;;10.00;6.83;;;-14.30;99.90;;;;;;5095487;28;20242;-72
2022/11/12 06:17:58;;;;;;;6.00;5.23;;;-14.10;99.90;;;;;;5106974;28;20490;-73
2022/11/12 06:20:23;;;;;;;6.03;5.47;;;-13.90;99.90;;;;;;5098442;28;20421;-72
2022/11/12 06:22:49;;;;;;;9.83;7.33;;;-13.50;99.90;;;;;;5102023;28;20184;-73
2022/11/12 06:25:16;;;;;;;7.03;5.47;;;-14.00;99.90;;;;;;5100980;27;20186;-73
2022/11/12 06:27:42;;;;;;;7.23;6.10;;;-14.60;99.90;;;;;;5097701;28;20418;-75
2022/11/12 06:30:08;;;;;;;6.87;5.60;;;-14.00;99.90;;;;;;5101117;27;20430;-75
2022/11/12 06:32:34;;;;;;;7.50;5.97;;;-14.40;99.90;;;;;;5094937;28;20706;-75
2022/11/12 06:35:00;;;;;;;7.50;6.43;;;-14.50;99.90;;;;;;5093059;28;20493;-75
2022/11/12 06:37:26;;;;;;;9.20;7.37;;;-14.40;99.90;;;;;;5086978;28;20220;-74
2022/11/12 06:39:52;;;;;;;7.90;5.60;;;-13.30;99.90;;;;;;5100055;28;20471;-77
2022/11/12 06:42:18;;;;;;;8.93;6.87;;;-13.40;99.90;;;;;;5096946;28;20187;-75
2022/11/12 06:44:43;;;;;;;5.97;5.37;;;-13.30;99.90;;;;;;5098239;28;20181;-73
2022/11/12 06:47:10;;;;;;;7.03;6.43;;;-11.80;99.90;;;;;;5102143;28;20194;-75
2022/11/12 06:49:35;;;;;;;7.17;6.27;;;-13.80;99.90;;;;;;5098138;28;20201;-77
2022/11/12 06:52:01;;;;;;;9.93;6.50;;;-14.20;99.90;;;;;;5097632;28;20883;-75
2022/11/12 06:54:27;;;;;;;8.20;7.13;;;-13.60;99.90;;;;;;5096393;28;20214;-73
2022/11/12 06:56:53;;;;;;;8.37;6.67;;;-14.10;99.90;;;;;;5095425;28;20169;-74
2022/11/12 06:59:18;;;;;;;7.40;6.70;;;-13.70;99.90;;;;;;5098045;28;20178;-74
2022/11/12 07:01:44;;;;;;;8.27;7.07;;;-13.60;99.90;;;;;;5101858;28;20179;-74
2022/11/12 07:04:10;;;;;;;7.00;6.30;;;-13.60;99.90;;;;;;5100291;28;20213;-75
2022/11/12 07:06:36;;;;;;;7.30;6.50;;;-13.40;99.90;;;;;;5102199;28;20189;-73
2022/11/12 07:09:03;;;;;;;6.23;5.63;;;-12.80;99.90;;;;;;5102404;28;20494;-75
2022/11/12 07:11:29;;;;;;;8.03;7.07;;;-12.70;99.90;;;;;;5101932;28;20526;-75
2022/11/12 07:13:54;;;;;;;7.97;7.00;;;-13.20;99.90;;;;;;5096733;28;20487;-73
2022/11/12 07:16:21;;;;;;;6.57;6.07;;;-13.40;99.90;;;;;;5087561;28;20177;-73
2022/11/12 07:18:48;;;;;;;13.63;7.20;;;-12.60;99.90;;;;;;5100219;28;20651;-74
2022/11/12 07:21:17;;;;;;;9.30;7.70;;;-12.50;99.90;;;;;;5095285;28;20523;-75
2022/11/12 07:23:43;;;;;;;9.63;7.53;;;-13.00;99.90;;;;;;5100293;28;20432;-75
2022/11/12 07:26:17;;;;;;;8.53;7.17;;;-13.00;99.90;;;;;;5101829;28;20599;-74
2022/11/12 07:28:44;;;;;;;8.17;7.37;;;-12.80;99.90;;;;;;5092894;28;20438;-73
2022/11/12 07:31:12;;;;;;;8.00;7.30;;;-13.20;99.90;;;;;;5089111;28;20441;-73
2022/11/12 07:33:38;;;;;;;10.33;9.30;;;-12.50;99.90;;;;;;5088195;28;20521;-75
2022/11/12 07:36:09;;;;;;;8.43;6.90;;;-12.60;99.90;;;;;;5090950;28;20881;-74
2022/11/12 07:38:37;;;;;;;10.67;9.23;;;-12.40;99.90;;;;;;5089981;28;20215;-72
2022/11/12 07:41:09;;;;;;;9.70;6.43;;;-12.50;99.90;;;;;;5093803;28;20452;-71
2022/11/12 07:43:36;;;;;;;10.67;7.47;;;-11.70;99.90;;;;;;5098522;28;20442;-73
2022/11/12 07:46:05;;;;;;;8.83;7.90;;;-11.90;99.90;;;;;;5091380;28;20889;-74
2022/11/12 07:48:31;;;;;;;18.27;8.70;;;-11.40;99.90;;;;;;5093440;28;20450;-75
2022/11/12 07:51:04;;;;;;;12.57;8.87;;;-11.80;99.90;;;;;;5089192;28;20510;-73
2022/11/12 07:53:30;;;;;;;9.47;8.43;;;-11.70;99.90;;;;;;5092613;28;20469;-72
2022/11/12 07:55:58;;;;;;;13.87;9.30;;;-11.70;99.90;;;;;;5096163;28;20512;-73
2022/11/12 07:58:25;;;;;;;11.10;8.87;;;-12.20;99.90;;;;;;5097799;28;20429;-73
2022/11/12 08:00:52;;;;;;;10.87;8.87;;;-13.10;99.90;;;;;;5092450;28;20478;-71
2022/11/12 08:03:17;;;;;;;11.07;8.33;;;-13.00;99.90;;;;;;5097940;28;20530;-72
2022/11/12 08:05:43;;;;;;;14.37;10.33;;;-13.70;99.90;;;;;;5084193;28;20537;-75
2022/11/12 08:08:10;;;;;;;11.40;9.00;;;-13.80;99.90;;;;;;5095380;28;20184;-75
2022/11/12 08:10:36;;;;;;;12.30;8.90;;;-14.20;99.90;;;;;;5097001;28;20170;-72
2022/11/12 08:13:02;;;;;;;10.20;8.83;;;-13.90;99.90;;;;;;5090708;28;20864;-73
2022/11/12 08:15:28;;;;;;;13.57;10.30;;;-15.40;99.90;;;;;;5091914;28;20425;-72
2022/11/12 08:17:54;;;;;;;14.33;9.73;;;-14.90;99.90;;;;;;5089430;28;20871;-70
2022/11/12 08:20:19;;;;;;;11.93;9.20;;;-15.70;99.90;;;;;;5088821;28;20641;-77
2022/11/12 08:22:45;;;;;;;10.43;9.03;;;-16.70;99.90;;;;;;5096419;28;20524;-71
2022/11/12 08:25:11;;;;;;;12.03;8.87;;;-15.20;99.90;;;;;;5112806;27;20192;-67
2022/11/12 08:27:37;;;;;;;11.43;8.37;;;-16.40;99.90;;;;;;5090335;28;20488;-70
2022/11/12 08:30:04;;;;;;;9.57;8.67;;;-15.20;99.90;;;;;;5090877;28;20423;-69
2022/11/12 08:32:30;;;;;;;10.07;8.97;;;-16.20;99.90;;;;;;5094703;28;20187;-72
2022/11/12 08:34:56;;;;;;;11.00;8.43;;;-17.00;99.90;;;;;;5095727;28;20458;-75
2022/11/12 08:37:22;;;;;;;18.27;8.87;;;-16.10;99.90;;;;;;5095329;28;20419;-73
2022/11/12 08:39:47;;;;;;;10.00;8.67;;;-17.30;99.90;;;;;;5091445;28;20186;-74
2022/11/12 08:42:13;;;;;;;10.73;8.33;;;-16.30;99.90;;;;;;5096975;28;20184;-75
2022/11/12 08:44:39;;;;;;;14.23;10.00;;;-17.10;99.90;;;;;;5096952;28;20265;-73
2022/11/12 08:47:05;;;;;;;9.70;8.73;;;-18.60;99.90;;;;;;5097132;28;20182;-79
2022/11/12 08:49:31;;;;;;;11.87;9.50;;;-18.60;99.90;;;;;;5088551;28;20182;-70
2022/11/12 08:51:56;;;;;;;13.27;9.70;;;-17.90;99.90;;;;;;5095591;28;20186;-73
2022/11/12 08:54:23;;;;;;;14.30;9.83;;;-17.60;99.90;;;;;;5095279;28;20213;-76
2022/11/12 08:56:50;;;;;;;12.40;9.83;;;-18.40;99.90;;;;;;5093371;28;20174;-71
2022/11/12 08:59:16;;;;;;;20.00;10.87;;;-16.90;99.90;;;;;;5083538;28;20179;-73
2022/11/12 09:01:42;;;;;;;18.77;10.77;;;-16.10;99.90;;;;;;5087004;28;20509;-73
2022/11/12 09:04:08;;;;;;;40.27;12.70;;;-15.30;99.90;;;;;;5092515;28;20740;-73
2022/11/12 09:06:33;;;;;;;20.13;9.97;;;-15.10;99.90;;;;;;5094094;28;20182;-69
2022/11/12 09:08:59;;;;;;;13.87;10.57;;;-17.10;99.90;;;;;;5087379;28;20179;-72
2022/11/12 09:11:25;;;;;;;30.97;11.70;;;-16.30;99.90;;;;;;5095307;28;20271;-74
2022/11/12 09:13:54;;;;;;;23.93;12.53;;;-16.50;99.90;;;;;;5085969;28;20205;-70
2022/11/12 09:16:20;;;;;;;16.90;11.53;;;-16.40;99.90;;;;;;5087762;28;20482;-74
2022/11/12 09:18:47;;;;;;;13.63;10.33;;;-18.90;99.90;;;;;;5087173;28;20171;-73
2022/11/12 09:21:13;;;;;;;22.87;9.13;;;-17.60;99.90;;;;;;5095866;28;20177;-70
2022/11/12 09:23:39;;;;;;;7.07;6.47;;;-19.80;99.90;;;;;;5096529;28;20190;-73
2022/11/12 09:26:05;;;;;;;6.70;6.17;;;-18.80;99.90;;;;;;5089357;28;20182;-71
2022/11/12 09:28:32;;;;;;;11.70;9.03;;;-16.10;99.90;;;;;;5095566;28;20179;-73
2022/11/12 09:30:58;;;;;;;7.70;7.00;;;-21.40;99.90;;;;;;5083040;28;20183;-69
2022/11/12 09:33:28;;;;;;;5.37;4.97;;;-19.90;99.90;;;;;;5095258;28;20207;-70
2022/11/12 09:35:54;;;;;;;4.67;4.27;;;-18.80;99.90;;;;;;5096505;28;20568;-70
2022/11/12 09:38:21;;;;;;;5.27;4.77;;;-17.60;99.90;;;;;;5090657;28;20181;-69
2022/11/12 09:40:58;;;;;;;4.00;3.70;;;-16.00;99.90;;;;;;5094315;28;20563;-70
2022/11/12 09:43:24;;;;;;;5.43;4.73;;;-16.40;99.90;;;;;;5093482;28;20212;-71
2022/11/12 09:45:51;;;;;;;8.07;7.27;;;-19.50;99.90;;;;;;5082184;28;20181;-70
2022/11/12 09:48:26;;;;;;;4.23;3.90;;;-22.00;99.90;;;;;;5082225;28;20613;-70
2022/11/12 09:51:32;;;;;;;5.13;4.63;;;-21.20;99.90;;;;;;5090780;28;20181;-71
2022/11/12 09:54:25;;;;;;;5.60;4.17;;;-17.80;99.90;;;;;;5081902;28;20270;-73
2022/11/12 09:56:52;;;;;;;5.03;4.57;;;-21.50;99.90;;;;;;5090012;28;20189;-71
2022/11/12 09:59:19;;;;;;;5.07;4.57;;;-18.00;99.90;;;;;;5091538;28;20239;-74
2022/11/12 10:01:57;;;;;;;4.47;3.23;;;-17.20;99.90;;;;;;5090165;28;20260;-71
2022/11/12 10:04:44;;;;;;;5.27;4.73;;;-17.60;99.90;;;;;;5090900;28;20295;-69
2022/11/12 10:07:30;;;;;;;5.17;4.30;;;-17.00;99.90;;;;;;5089960;28;20492;-70
2022/11/12 10:10:01;;;;;;;4.40;3.97;;;-15.60;99.90;;;;;;5084198;28;20186;-69
2022/11/12 10:13:14;;;;;;;3.83;3.53;;;-18.20;99.90;;;;;;5095604;28;20196;-69
2022/11/12 10:19:12;;;;;;;3.50;3.27;;;-20.00;99.90;;;;;;5096107;28;20235;-70
2022/11/12 10:22:15;;;;;;;4.57;3.27;;;-19.70;99.90;;;;;;5095770;28;20185;-70
2022/11/12 10:24:43;;;;;;;5.83;3.33;;;-17.60;99.90;;;;;;5091782;28;20181;-71
2022/11/12 10:27:19;;;;;;;5.93;4.07;;;-20.90;99.90;;;;;;5090377;28;20270;-73
2022/11/12 10:30:00;;;;;;;5.23;3.60;;;-17.90;99.90;;;;;;5085340;28;20536;-74
2022/11/12 10:32:25;;;;;;;4.60;4.20;;;-19.50;99.90;;;;;;5084944;28;20182;-71
2022/11/12 10:34:51;;;;;;;5.33;4.83;;;-20.30;99.90;;;;;;5089425;28;20211;-75
2022/11/12 10:37:36;;;;;;;4.53;4.10;;;-19.10;99.90;;;;;;5094890;28;20181;-69
2022/11/12 10:40:26;;;;;;;5.97;3.57;;;-16.60;99.90;;;;;;5087464;28;20600;-76
2022/11/12 10:43:04;;;;;;;4.33;4.03;;;-21.30;99.90;;;;;;5087420;28;20190;-76
2022/11/12 10:45:31;;;;;;;6.63;3.83;;;-19.80;99.90;;;;;;5085460;28;20174;-72
2022/11/12 10:47:58;;;;;;;8.30;4.27;;;-21.20;99.90;;;;;;5087287;28;20186;-76
2022/11/12 10:50:41;;;;;;;4.03;3.73;;;-20.40;99.90;;;;;;5095499;28;20252;-75
2022/11/12 10:53:10;;;;;;;5.27;4.03;;;-23.40;99.90;;;;;;5087024;28;20206;-71
2022/11/12 10:55:54;;;;;;;4.70;4.30;;;-20.80;99.90;;;;;;5081231;28;20180;-73
2022/11/12 10:58:19;;;;;;;6.53;4.87;;;-21.00;99.90;;;;;;5086295;28;20178;-74
2022/11/12 11:00:53;;;;;;;3.27;3.00;;;-19.60;99.90;;;;;;5088902;28;20175;-75
2022/11/12 11:03:28;;;;;;;4.10;3.47;;;-25.00;99.90;;;;;;5095046;28;20507;-75
2022/11/12 11:05:57;;;;;;;4.90;3.90;;;-24.60;99.90;;;;;;5099043;28;20513;-74
2022/11/12 11:08:53;;;;;;;4.90;3.73;;;-22.60;99.90;;;;;;5092200;28;20182;-73
2022/11/12 11:11:28;;;;;;;4.73;4.33;;;-28.30;99.90;;;;;;5087389;28;20559;-74
2022/11/12 11:13:56;;;;;;;4.30;3.90;;;-26.00;99.90;;;;;;5091496;28;20676;-74
2022/11/12 11:16:28;;;;;;;4.53;4.13;;;-23.70;99.90;;;;;;5099385;28;20656;-74
2022/11/12 11:18:53;;;;;;;10.63;4.60;;;-23.10;99.90;;;;;;5098770;28;20578;-74
2022/11/12 11:21:37;;;;;;;5.93;3.77;;;-24.10;99.90;;;;;;5086836;28;20178;-73
2022/11/12 11:24:17;;;;;;;5.47;3.47;;;-25.80;99.90;;;;;;5087300;28;20186;-73
2022/11/12 11:27:17;;;;;;;4.97;3.50;;;-26.30;99.90;;;;;;5098785;28;20235;-74
2022/11/12 11:30:01;;;;;;;3.70;3.33;;;-28.70;99.90;;;;;;5084235;28;20194;-72
2022/11/12 11:33:04;;;;;;;16.50;5.33;;;-29.80;99.90;;;;;;5084458;28;20189;-73
2022/11/12 11:35:53;;;;;;;3.63;3.33;;;-38.30;99.90;;;;;;5097869;28;20254;-72
2022/11/12 11:38:45;;;;;;;28.53;12.43;;;-40.00;99.90;;;;;;5095902;28;20178;-72
2022/11/12 11:41:30;;;;;;;4.00;3.60;;;-40.00;99.90;;;;;;5077434;28;20724;-76
2022/11/12 11:44:17;;;;;;;8.37;4.67;;;-40.00;99.90;;;;;;5092106;28;20174;-74
2022/11/12 11:46:51;;;;;;;6.27;4.33;;;-40.00;99.90;;;;;;5091944;28;20496;-72
2022/11/12 11:49:36;;;;;;;5.37;3.00;;;-40.00;99.90;;;;;;5104786;27;20190;-71
2022/11/12 11:52:47;;;;;;;5.43;3.67;;;-40.00;99.90;;;;;;5086881;28;20193;-71
2022/11/12 11:55:41;;;;;;;10.33;6.43;;;-40.00;99.90;;;;;;5079876;28;20218;-72
2022/11/12 11:58:28;;;;;;;7.30;4.70;;;-38.80;99.90;;;;;;5095884;28;20183;-72
2022/11/12 12:01:17;;;;;;;4.33;3.90;;;-33.70;99.90;;;;;;5097343;28;20236;-72
2022/11/12 12:04:06;;;;;;;4.23;3.83;;;-38.20;99.90;;;;;;5097671;28;20531;-72
2022/11/12 12:06:50;;;;;;;9.57;3.90;;;-32.50;99.90;;;;;;5094229;28;20194;-79
2022/11/12 12:09:37;;;;;;;3.37;3.07;;;-30.70;99.90;;;;;;5092523;28;20567;-72
2022/11/12 12:12:21;;;;;;;5.47;3.83;;;-27.90;99.90;;;;;;5079854;28;20190;-73
2022/11/12 12:15:12;;;;;;;5.33;3.27;;;-28.10;99.90;;;;;;5091439;28;20202;-74
2022/11/12 12:18:09;;;;;;;3.73;3.43;;;-35.20;99.90;;;;;;5092121;28;20586;-75
2022/11/12 12:20:43;;;;;;;7.27;4.77;;;-27.50;99.90;;;;;;5092735;28;20178;-78
2022/11/12 12:23:28;;;;;;;3.13;2.90;;;-28.90;99.90;;;;;;5084714;28;20189;-76
2022/11/12 12:25:56;;;;;;;6.03;3.80;;;-26.20;99.90;;;;;;5093143;28;20239;-76
2022/11/12 12:28:47;;;;;;;5.27;3.40;;;-25.20;99.90;;;;;;5091405;28;20248;-74
2022/11/12 12:31:17;;;;;;;4.57;3.57;;;-24.20;99.90;;;;;;5087711;28;20186;-74
2022/11/12 12:33:55;;;;;;;5.13;3.17;;;-22.00;99.90;;;;;;5090979;28;20202;-75
2022/11/12 12:36:39;;;;;;;5.47;3.47;;;-20.00;99.90;;;;;;5096961;28;20257;-75
2022/11/12 12:39:16;;;;;;;3.17;2.97;;;-35.90;99.90;;;;;;5086608;28;20184;-75
2022/11/12 12:41:48;;;;;;;4.03;3.73;;;-32.00;99.90;;;;;;5093952;28;20187;-75
2022/11/12 12:44:14;;;;;;;4.83;3.67;;;-31.10;99.90;;;;;;5078931;28;20183;-75
2022/11/12 12:46:56;;;;;;;4.40;4.00;;;-24.30;99.90;;;;;;5106806;27;20349;-75
2022/11/12 12:49:35;;;;;;;7.60;4.07;;;-22.50;99.90;;;;;;5093168;28;20497;-75
2022/11/12 12:52:01;;;;;;;5.27;3.33;;;-22.90;99.90;;;;;;5095564;28;20194;-76
2022/11/12 12:54:36;;;;;;;3.97;3.67;;;-21.70;99.90;;;;;;5090985;28;20214;-75
2022/11/12 12:57:03;;;;;;;5.23;4.13;;;-18.30;99.90;;;;;;5089045;28;20182;-76
2022/11/12 12:59:29;;;;;;;4.03;3.73;;;-20.00;99.90;;;;;;5082485;28;20260;-74
2022/11/12 13:02:01;;;;;;;4.57;3.90;;;-23.20;99.90;;;;;;5094333;28;20262;-75
2022/11/12 13:04:53;;;;;;;3.30;3.00;;;-21.70;99.90;;;;;;5096074;28;20211;-74
2022/11/12 13:07:44;;;;;;;4.70;3.43;;;-26.20;99.90;;;;;;5089253;28;20182;-74
2022/11/12 13:10:38;;;;;;;4.33;3.23;;;-25.50;99.90;;;;;;5078786;28;20207;-72
2022/11/12 13:13:21;;;;;;;7.43;4.30;;;-17.80;99.90;;;;;;5106018;27;20195;-75
2022/11/12 13:15:49;;;;;;;2.93;2.63;;;-22.20;99.90;;;;;;5084858;28;20183;-73
2022/11/12 13:18:37;;;;;;;6.20;3.63;;;-27.90;99.90;;;;;;5083272;28;20210;-72
2022/11/12 13:21:13;;;;;;;3.73;3.43;;;-35.90;99.90;;;;;;5096123;28;20194;-75
2022/11/12 13:24:11;;;;;;;6.30;3.50;;;-25.50;99.90;;;;;;5088791;28;20183;-72